^^
Meteo Knjazevac Station Historical Data
Daily Summary for March 10, 2021 Units:  English    Metric   Both
Daily Weekly Monthly Yearly Custom
  High: Low: Average:
Temperature: 32.9 °F 31.6 °F 32.1 °F
Dew Point: 32.7 °F 31.4 °F 31.9 °F
Humidity: 99% 99% 99%
Wind Speed: 2mph 0mph 0.6mph
Wind Gust: 7mph - -
Wind- - South
Pressure: 30.17 in 30.12 in -
Precipitation: 0.00 in    
Historical Graphs
 
 
Tabular Data for March 10, 2021
Time Temperature Dew Point Pressure Wind Wind Speed Wind Gust Humidity Rainfall Rate (Hourly) solar Conditions
00:00 32.4 °F 32.1 °F 30.14 in NW 1 mph 2 mph 99% 0.00 in 0 W/m2
00:10 32.4 °F 32.1 °F 30.13 in SE 1 mph 4 mph 99% 0.00 in 0 W/m2
00:20 32.4 °F 32.1 °F 30.13 in ESE 1 mph 5 mph 99% 0.00 in 0 W/m2
00:30 32.4 °F 32.1 °F 30.13 in Calm   5 mph 99% 0.00 in 0 W/m2
00:40 32.2 °F 31.9 °F 30.13 in North 1 mph 4 mph 99% 0.00 in 0 W/m2
00:50 32.2 °F 31.9 °F 30.13 in NE 1 mph 3 mph 99% 0.00 in 0 W/m2
01:00 32.2 °F 31.9 °F 30.12 in NNE 2 mph 6 mph 99% 0.00 in 0 W/m2
01:10 32.2 °F 31.9 °F 30.12 in NNE 1 mph 5 mph 99% 0.00 in 0 W/m2
01:20 32.2 °F 31.9 °F 30.12 in Calm   3 mph 99% 0.00 in 0 W/m2
01:30 32.2 °F 31.9 °F 30.13 in NW 1 mph 4 mph 99% 0.00 in 0 W/m2
01:40 32.2 °F 31.9 °F 30.12 in South 1 mph 3 mph 99% 0.00 in 0 W/m2
01:50 32.2 °F 31.9 °F 30.13 in Calm   2 mph 99% 0.00 in 0 W/m2
02:00 32.2 °F 31.9 °F 30.12 in Calm   3 mph 99% 0.00 in 0 W/m2
02:10 32.2 °F 31.9 °F 30.13 in NNE 1 mph 5 mph 99% 0.00 in 0 W/m2
02:20 32.1 °F 31.9 °F 30.13 in Calm   3 mph 99% 0.00 in 0 W/m2
02:30 32.2 °F 31.9 °F 30.13 in North 1 mph 4 mph 99% 0.00 in 0 W/m2
02:40 32.2 °F 31.9 °F 30.13 in NNE 1 mph 5 mph 99% 0.00 in 0 W/m2
02:50 32 °F 31.8 °F 30.13 in Calm   4 mph 99% 0.00 in 0 W/m2
03:00 32.2 °F 31.9 °F 30.13 in North 1 mph 4 mph 99% 0.00 in 0 W/m2
03:10 32 °F 31.8 °F 30.13 in NNE 2 mph 4 mph 99% 0.00 in 0 W/m2
03:20 32 °F 31.8 °F 30.13 in North 1 mph 4 mph 99% 0.00 in 0 W/m2
03:30 32 °F 31.8 °F 30.12 in ENE 1 mph 3 mph 99% 0.00 in 0 W/m2
03:40 32 °F 31.8 °F 30.13 in NW 1 mph 3 mph 99% 0.00 in 0 W/m2
03:50 32 °F 31.8 °F 30.13 in NW 2 mph 7 mph 99% 0.00 in 0 W/m2
04:00 31.8 °F 31.6 °F 30.14 in WNW 2 mph 3 mph 99% 0.00 in 0 W/m2
04:10 32 °F 31.8 °F 30.13 in North 1 mph 3 mph 99% 0.00 in 0 W/m2
04:20 31.8 °F 31.6 °F 30.14 in North 1 mph 2 mph 99% 0.00 in 0 W/m2
04:30 31.8 °F 31.6 °F 30.14 in Calm   2 mph 99% 0.00 in 0 W/m2
04:40 31.8 °F 31.6 °F 30.14 in Calm   2 mph 99% 0.00 in 0 W/m2
04:50 31.8 °F 31.6 °F 30.14 in Calm   3 mph 99% 0.00 in 0 W/m2
05:00 31.8 °F 31.6 °F 30.14 in North 1 mph 2 mph 99% 0.00 in 0 W/m2
05:10 31.8 °F 31.6 °F 30.14 in Calm   3 mph 99% 0.00 in 0 W/m2
05:20 31.8 °F 31.6 °F 30.14 in Calm   4 mph 99% 0.00 in 0 W/m2
05:30 31.8 °F 31.6 °F 30.14 in NNE 1 mph 3 mph 99% 0.00 in 0 W/m2
05:40 31.6 °F 31.4 °F 30.14 in North 1 mph 4 mph 99% 0.00 in 0 W/m2
05:50 31.6 °F 31.4 °F 30.14 in Calm   4 mph 99% 0.00 in 0 W/m2
06:00 31.6 °F 31.4 °F 30.14 in North 1 mph 3 mph 99% 0.00 in 0 W/m2
06:10 31.6 °F 31.4 °F 30.14 in NNE 1 mph 2 mph 99% 0.00 in 0 W/m2
06:20 31.6 °F 31.4 °F 30.14 in NE 1 mph 2 mph 99% 0.00 in 0 W/m2
06:30 31.6 °F 31.4 °F 30.14 in North 1 mph 3 mph 99% 0.00 in 0 W/m2
06:40 31.6 °F 31.4 °F 30.15 in Calm   2 mph 99% 0.00 in 0 W/m2
06:50 31.6 °F 31.4 °F 30.14 in Calm   5 mph 99% 0.00 in 0 W/m2
07:00 31.6 °F 31.4 °F 30.14 in Calm   2 mph 99% 0.00 in 0 W/m2
07:10 31.6 °F 31.4 °F 30.14 in Calm   2 mph 99% 0.00 in 1 W/m2
07:20 31.6 °F 31.4 °F 30.14 in WSW 1 mph 2 mph 99% 0.00 in 1 W/m2
07:30 31.6 °F 31.4 °F 30.14 in SW 1 mph 2 mph 99% 0.00 in 3 W/m2
07:40 31.6 °F 31.4 °F 30.15 in West 1 mph 2 mph 99% 0.00 in 2 W/m2
07:50 31.6 °F 31.4 °F 30.15 in WSW 1 mph 3 mph 99% 0.00 in 4 W/m2
08:00 31.8 °F 31.6 °F 30.16 in WSW 1 mph 2 mph 99% 0.00 in 7 W/m2
08:10 31.8 °F 31.6 °F 30.16 in Calm   2 mph 99% 0.00 in 7 W/m2
08:20 31.8 °F 31.6 °F 30.16 in Calm   2 mph 99% 0.00 in 12 W/m2
08:30 31.8 °F 31.6 °F 30.16 in Calm   3 mph 99% 0.00 in 15 W/m2
08:40 32 °F 31.8 °F 30.16 in Calm   2 mph 99% 0.00 in 13 W/m2
08:50 32 °F 31.8 °F 30.17 in WSW 1 mph 2 mph 99% 0.00 in 16 W/m2
09:00 32 °F 31.8 °F 30.17 in SW 1 mph 2 mph 99% 0.00 in 14 W/m2
09:10 32 °F 31.8 °F 30.17 in WSW 1 mph 2 mph 99% 0.00 in 18 W/m2
09:20 32.2 °F 31.9 °F 30.17 in Calm   2 mph 99% 0.00 in 23 W/m2
09:30 32.2 °F 31.9 °F 30.17 in SW 1 mph 2 mph 99% 0.00 in 17 W/m2
09:40 32.2 °F 31.9 °F 30.17 in Calm   1 mph 99% 0.00 in 21 W/m2
09:50 32.4 °F 32.1 °F 30.17 in SW 1 mph 2 mph 99% 0.00 in 18 W/m2
10:00 32.4 °F 32.1 °F 30.17 in Calm   2 mph 99% 0.00 in 19 W/m2
10:10 32.4 °F 32.1 °F 30.17 in Calm   2 mph 99% 0.00 in 23 W/m2
10:20 32.4 °F 32.1 °F 30.17 in WSW 1 mph 2 mph 99% 0.00 in 20 W/m2
10:30 32.5 °F 32.3 °F 30.16 in Calm   2 mph 99% 0.00 in 25 W/m2
10:40 32.5 °F 32.3 °F 30.15 in Calm   2 mph 99% 0.00 in 27 W/m2
10:50 32.5 °F 32.3 °F 30.15 in WSW 1 mph 2 mph 99% 0.00 in 19 W/m2
11:00 32.5 °F 32.3 °F 30.15 in Calm   2 mph 99% 0.00 in 21 W/m2
11:10 32.5 °F 32.3 °F 30.15 in Calm   2 mph 99% 0.00 in 24 W/m2
11:20 32.5 °F 32.3 °F 30.15 in Calm   2 mph 99% 0.00 in 32 W/m2
11:30 32.8 °F 32.6 °F 30.15 in West 1 mph 2 mph 99% 0.00 in 22 W/m2
11:40 32.8 °F 32.6 °F 30.14 in Calm   2 mph 99% 0.00 in 26 W/m2
11:50 32.9 °F 32.7 °F 30.14 in Calm   2 mph 99% 0.00 in 23 W/m2
12:00 32.9 °F 32.7 °F 30.14 in NNW 1 mph 2 mph 99% 0.00 in 25 W/m2
12:10 32.9 °F 32.7 °F 30.14 in WSW 1 mph 2 mph 99% 0.00 in 17 W/m2
12:20 32.9 °F 32.7 °F 30.14 in Calm   2 mph 99% 0.00 in 22 W/m2
12:30 32.9 °F 32.7 °F 30.13 in Calm   2 mph 99% 0.00 in 21 W/m2
12:40 32.9 °F 32.7 °F 30.13 in Calm   2 mph 99% 0.00 in 21 W/m2
Knjazevac, Serbia
Compliments of Weather Underground - 2 mb